Time;durP1;ratioP1;P1;durP2;ratioP2;P2;SDS_P1;SDS_P2;PMS_P1;PMS_P2;Temp;Humidity;BMP_temperature;BMP_pressure;BME280_temperature;BME280_humidity;BME280_pressure;Samples;Min_cycle;Max_cycle;Signal;HPM_P1;HPM_P2
2021/04/06 00:01:35;;;;;;;2.30;2.10;;;6.50;99.90;;;;;;5049592;28;20256;-69
2021/04/06 00:04:04;;;;;;;1.80;1.63;;;6.50;99.90;;;;;;5031732;28;20779;-69
2021/04/06 00:06:32;;;;;;;2.40;2.20;;;6.60;99.90;;;;;;5043324;28;20218;-69
2021/04/06 00:08:59;;;;;;;3.70;2.38;;;6.60;99.90;;;;;;5030899;28;20195;-70
2021/04/06 00:11:27;;;;;;;2.13;1.80;;;6.60;99.90;;;;;;5030964;28;20210;-69
2021/04/06 00:13:55;;;;;;;4.72;2.50;;;6.70;99.90;;;;;;5050561;28;20235;-69
2021/04/06 00:16:22;;;;;;;1.90;1.70;;;6.60;99.90;;;;;;5043917;28;20252;-69
2021/04/06 00:18:51;;;;;;;2.10;1.83;;;6.60;99.90;;;;;;5032518;28;20200;-69
2021/04/06 00:21:18;;;;;;;5.20;2.38;;;6.60;99.90;;;;;;5031124;28;20215;-69
2021/04/06 00:23:47;;;;;;;1.20;1.10;;;6.50;99.90;;;;;;5030780;28;20203;-69
2021/04/06 00:26:13;;;;;;;3.38;1.63;;;6.50;99.90;;;;;;5035325;28;20214;-69
2021/04/06 00:28:42;;;;;;;1.92;1.30;;;6.50;99.90;;;;;;5033793;28;20198;-69
2021/04/06 00:31:12;;;;;;;1.73;1.45;;;6.50;99.90;;;;;;5040185;28;20210;-68
2021/04/06 00:33:41;;;;;;;1.85;1.67;;;6.60;99.90;;;;;;5040702;28;20206;-69
2021/04/06 00:36:08;;;;;;;2.25;1.65;;;6.60;99.90;;;;;;5030806;28;20195;-69
2021/04/06 00:38:38;;;;;;;2.60;1.40;;;6.50;99.90;;;;;;5044613;28;20516;-68
2021/04/06 00:41:06;;;;;;;3.17;1.30;;;6.50;99.90;;;;;;5049787;28;20198;-68
2021/04/06 00:43:35;;;;;;;3.80;1.83;;;6.50;99.90;;;;;;5050323;28;20217;-69
2021/04/06 00:46:02;;;;;;;4.32;1.70;;;6.50;99.90;;;;;;5030853;28;20667;-69
2021/04/06 00:48:31;;;;;;;3.72;1.70;;;6.50;99.90;;;;;;5030123;28;20766;-68
2021/04/06 00:51:12;;;;;;;4.18;1.40;;;6.50;99.90;;;;;;5030954;28;20203;-69
2021/04/06 00:53:49;;;;;;;2.13;1.25;;;6.50;99.90;;;;;;5048838;28;20657;-69
2021/04/06 00:56:17;;;;;;;1.83;1.10;;;6.50;99.90;;;;;;5050285;28;20191;-69
2021/04/06 00:58:44;;;;;;;1.67;1.20;;;6.50;99.90;;;;;;5034378;28;20203;-70
2021/04/06 01:01:10;;;;;;;1.58;1.10;;;6.40;99.90;;;;;;5030149;28;20338;-69
2021/04/06 01:03:41;;;;;;;2.40;1.40;;;6.50;99.90;;;;;;5040676;28;20256;-69
2021/04/06 01:06:08;;;;;;;1.88;1.10;;;6.40;99.90;;;;;;5046229;28;20226;-70
2021/04/06 01:08:36;;;;;;;3.33;1.50;;;6.40;99.90;;;;;;5034809;28;20735;-69
2021/04/06 01:11:03;;;;;;;4.10;1.10;;;6.40;99.90;;;;;;5029972;28;20206;-69
2021/04/06 01:13:31;;;;;;;1.90;1.23;;;6.50;99.90;;;;;;5038292;28;20199;-69
2021/04/06 01:15:58;;;;;;;2.40;1.30;;;6.50;99.90;;;;;;5048478;28;20675;-69
2021/04/06 01:18:25;;;;;;;2.85;1.55;;;6.40;99.90;;;;;;5036268;28;20231;-69
2021/04/06 01:20:54;;;;;;;2.45;1.17;;;6.50;99.90;;;;;;5029521;28;20235;-69
2021/04/06 01:23:22;;;;;;;1.63;0.93;;;6.50;99.90;;;;;;5049772;28;20248;-69
2021/04/06 01:25:54;;;;;;;1.85;1.00;;;6.50;99.90;;;;;;5049821;28;20538;-68
2021/04/06 01:28:21;;;;;;;2.05;1.95;;;6.50;99.90;;;;;;5037716;28;20275;-69
2021/04/06 01:30:49;;;;;;;1.75;1.25;;;6.50;99.90;;;;;;5030067;28;20297;-69
2021/04/06 01:33:17;;;;;;;2.30;1.10;;;6.50;99.90;;;;;;5029870;28;20226;-68
2021/04/06 01:35:46;;;;;;;2.35;1.00;;;6.50;99.90;;;;;;5030127;28;20211;-68
2021/04/06 01:38:13;;;;;;;2.72;1.58;;;6.50;99.90;;;;;;5040572;28;20520;-68
2021/04/06 01:40:41;;;;;;;1.95;1.00;;;6.50;99.90;;;;;;5045822;28;20203;-68
2021/04/06 01:43:09;;;;;;;1.80;1.10;;;6.40;99.90;;;;;;5050111;28;20198;-68
2021/04/06 01:45:43;;;;;;;1.80;1.15;;;6.40;99.90;;;;;;5029891;28;20256;-68
2021/04/06 01:48:10;;;;;;;1.30;1.00;;;6.40;99.90;;;;;;5029399;28;20197;-68
2021/04/06 01:50:37;;;;;;;3.53;1.00;;;6.40;99.90;;;;;;5029878;28;20715;-68
2021/04/06 01:53:03;;;;;;;3.58;1.05;;;6.40;99.90;;;;;;5045856;28;20210;-68
2021/04/06 01:55:31;;;;;;;1.20;0.95;;;6.40;99.90;;;;;;5049723;28;20260;-68
2021/04/06 01:57:59;;;;;;;2.45;1.15;;;6.40;99.90;;;;;;5040952;28;20202;-68
2021/04/06 02:00:31;;;;;;;1.00;0.90;;;6.50;99.90;;;;;;5038475;28;20231;-69
2021/04/06 02:03:02;;;;;;;2.35;0.90;;;6.50;99.90;;;;;;5035475;28;20539;-69
2021/04/06 02:05:29;;;;;;;1.90;0.85;;;6.40;99.90;;;;;;5030742;28;20282;-68
2021/04/06 02:07:58;;;;;;;1.70;0.95;;;6.40;99.90;;;;;;5045669;28;20214;-69
2021/04/06 02:10:25;;;;;;;5.60;1.55;;;6.40;99.90;;;;;;5049491;28;20203;-69
2021/04/06 02:12:51;;;;;;;1.52;1.13;;;6.40;99.90;;;;;;5048274;28;20203;-69
2021/04/06 02:15:18;;;;;;;1.50;0.90;;;6.40;99.90;;;;;;5038097;28;20199;-69
2021/04/06 02:17:49;;;;;;;1.67;0.93;;;6.50;99.90;;;;;;5032627;28;20202;-68
2021/04/06 02:20:23;;;;;;;1.80;0.70;;;6.40;99.90;;;;;;5031549;28;20235;-69
2021/04/06 02:22:58;;;;;;;4.10;1.67;;;6.40;99.90;;;;;;5033484;28;20200;-69
2021/04/06 02:25:24;;;;;;;1.30;0.90;;;6.40;99.90;;;;;;5033027;28;20261;-69
2021/04/06 02:27:50;;;;;;;1.83;1.00;;;6.40;99.90;;;;;;5041102;28;20577;-69
2021/04/06 02:30:18;;;;;;;3.33;1.05;;;6.40;99.90;;;;;;5046638;28;20238;-69
2021/04/06 02:32:44;;;;;;;5.78;1.20;;;6.40;99.90;;;;;;5032942;28;20653;-69
2021/04/06 02:35:13;;;;;;;3.05;1.38;;;6.40;99.90;;;;;;5047682;28;20206;-69
2021/04/06 02:37:42;;;;;;;2.13;1.00;;;6.40;99.90;;;;;;5045776;28;20195;-69
2021/04/06 02:40:10;;;;;;;1.73;1.05;;;6.30;99.90;;;;;;5050348;28;20202;-69
2021/04/06 02:42:38;;;;;;;2.45;1.10;;;6.40;99.90;;;;;;5050420;28;20203;-69
2021/04/06 02:45:10;;;;;;;1.80;0.90;;;6.40;99.90;;;;;;5048316;28;20230;-69
2021/04/06 02:47:41;;;;;;;3.60;1.02;;;6.40;99.90;;;;;;5052171;28;20226;-69
2021/04/06 02:50:10;;;;;;;1.45;1.08;;;6.40;99.90;;;;;;5051630;28;20237;-69
2021/04/06 02:52:37;;;;;;;1.60;1.00;;;6.40;99.90;;;;;;5052287;28;20198;-69
2021/04/06 02:55:05;;;;;;;4.88;1.10;;;6.40;99.90;;;;;;5051466;28;20306;-69
2021/04/06 02:57:31;;;;;;;3.78;1.25;;;6.40;99.90;;;;;;5047322;28;20536;-69
2021/04/06 02:59:58;;;;;;;2.67;0.98;;;6.40;99.90;;;;;;5032158;28;20262;-68
2021/04/06 03:02:24;;;;;;;2.35;1.15;;;6.50;99.90;;;;;;5032245;28;20199;-68
2021/04/06 03:04:51;;;;;;;2.40;1.10;;;6.40;99.90;;;;;;5032438;28;20204;-69
2021/04/06 03:07:20;;;;;;;1.80;0.80;;;6.50;99.90;;;;;;5047865;28;20218;-69
2021/04/06 03:09:55;;;;;;;4.30;1.00;;;6.40;99.90;;;;;;5052331;28;20203;-69
2021/04/06 03:12:26;;;;;;;1.10;0.88;;;6.30;99.90;;;;;;5049189;28;20198;-69
2021/04/06 03:14:53;;;;;;;1.42;0.95;;;6.40;99.90;;;;;;5051793;28;20226;-70
2021/04/06 03:17:20;;;;;;;2.40;1.00;;;6.40;99.90;;;;;;5047900;28;20192;-70
2021/04/06 03:19:54;;;;;;;2.45;0.80;;;6.40;99.90;;;;;;5031726;28;20263;-70
2021/04/06 03:22:21;;;;;;;2.75;1.00;;;6.40;99.90;;;;;;5032248;28;20505;-70
2021/04/06 03:24:48;;;;;;;2.08;0.95;;;6.30;99.90;;;;;;5031700;28;20662;-70
2021/04/06 03:27:14;;;;;;;2.25;0.70;;;6.40;99.90;;;;;;5041365;28;20226;-69
2021/04/06 03:29:41;;;;;;;1.75;0.95;;;6.30;99.90;;;;;;5031948;28;20199;-69
2021/04/06 03:32:09;;;;;;;1.98;1.10;;;6.20;99.90;;;;;;5030679;28;20187;-69
2021/04/06 03:34:38;;;;;;;3.38;1.17;;;6.30;99.90;;;;;;5048999;28;20207;-69
2021/04/06 03:37:05;;;;;;;2.75;1.10;;;6.20;99.90;;;;;;5046900;28;20192;-69
2021/04/06 03:39:33;;;;;;;1.85;0.90;;;6.20;99.90;;;;;;5031667;28;20212;-69
2021/04/06 03:42:00;;;;;;;2.75;1.15;;;6.20;99.90;;;;;;5038184;28;20203;-69
2021/04/06 03:44:28;;;;;;;2.13;0.93;;;6.30;99.90;;;;;;5037703;28;20203;-69
2021/04/06 03:46:59;;;;;;;2.88;1.15;;;6.30;99.90;;;;;;5042367;28;20229;-69
2021/04/06 03:49:27;;;;;;;3.33;1.30;;;6.30;99.90;;;;;;5032901;28;20204;-69
2021/04/06 03:51:55;;;;;;;2.03;1.20;;;6.30;99.90;;;;;;5051580;28;20199;-70
2021/04/06 03:54:33;;;;;;;2.45;1.08;;;6.30;99.90;;;;;;5051310;28;20199;-69
2021/04/06 03:57:01;;;;;;;2.47;1.50;;;6.30;99.90;;;;;;5046769;28;20218;-69
2021/04/06 03:59:30;;;;;;;1.75;1.00;;;6.20;99.90;;;;;;5050613;28;20206;-69
2021/04/06 04:01:56;;;;;;;1.48;0.90;;;6.30;99.90;;;;;;5049454;28;20194;-69
2021/04/06 04:04:23;;;;;;;1.75;1.10;;;6.30;99.90;;;;;;5051266;28;20203;-68
2021/04/06 04:06:49;;;;;;;1.77;1.00;;;6.30;99.90;;;;;;5049763;28;20218;-69
2021/04/06 04:09:15;;;;;;;2.47;1.10;;;6.30;99.90;;;;;;5050056;28;20203;-68
2021/04/06 04:11:42;;;;;;;2.25;1.05;;;6.30;99.90;;;;;;5050646;28;20198;-69
2021/04/06 04:14:08;;;;;;;3.92;1.45;;;6.30;99.90;;;;;;5044207;28;20245;-69
2021/04/06 04:16:36;;;;;;;1.38;1.00;;;6.30;99.90;;;;;;5038013;28;20206;-69
2021/04/06 04:19:04;;;;;;;2.00;1.17;;;6.30;99.90;;;;;;5035596;28;20227;-69
2021/04/06 04:21:30;;;;;;;2.38;1.20;;;6.30;99.90;;;;;;5048789;28;20631;-69
2021/04/06 04:23:56;;;;;;;1.90;0.98;;;6.20;99.90;;;;;;5034598;28;20269;-70
2021/04/06 04:26:22;;;;;;;2.63;0.90;;;6.20;99.90;;;;;;5042026;28;20222;-70
2021/04/06 04:28:49;;;;;;;1.63;1.10;;;6.20;99.90;;;;;;5041940;28;20198;-70
2021/04/06 04:31:16;;;;;;;2.75;1.63;;;6.20;99.90;;;;;;5050624;28;20650;-69
2021/04/06 04:33:42;;;;;;;3.05;1.23;;;6.30;99.90;;;;;;5049573;28;20656;-69
2021/04/06 04:36:09;;;;;;;2.17;1.20;;;6.30;99.90;;;;;;5049340;28;20202;-69
2021/04/06 04:38:35;;;;;;;5.68;1.35;;;6.20;99.90;;;;;;5039368;28;20195;-69
2021/04/06 04:41:01;;;;;;;2.88;1.48;;;6.20;99.90;;;;;;5050122;28;20197;-69
2021/04/06 04:43:27;;;;;;;5.07;1.30;;;6.20;99.90;;;;;;5049646;28;20194;-69
2021/04/06 04:45:54;;;;;;;4.50;1.63;;;6.20;99.90;;;;;;5049283;28;20256;-68
2021/04/06 04:48:21;;;;;;;2.10;1.20;;;6.20;99.90;;;;;;5036862;28;20219;-69
2021/04/06 04:50:47;;;;;;;3.05;1.20;;;6.20;99.90;;;;;;5050703;28;20214;-69
2021/04/06 04:53:13;;;;;;;1.45;0.90;;;6.20;99.90;;;;;;5049859;28;20884;-69
2021/04/06 04:55:39;;;;;;;2.13;1.15;;;6.20;99.90;;;;;;5049243;28;20194;-69
2021/04/06 04:58:06;;;;;;;3.80;1.58;;;6.20;99.90;;;;;;5038057;28;20404;-69
2021/04/06 05:00:32;;;;;;;2.78;1.15;;;6.30;99.90;;;;;;5033877;28;20289;-69
2021/04/06 05:02:59;;;;;;;5.22;1.38;;;6.30;99.90;;;;;;5048132;28;20202;-69
2021/04/06 05:05:26;;;;;;;1.58;1.23;;;6.20;99.90;;;;;;5030849;28;20586;-69
2021/04/06 05:07:52;;;;;;;2.17;1.27;;;6.30;99.90;;;;;;5048377;28;20241;-69
2021/04/06 05:10:18;;;;;;;5.60;1.38;;;6.20;99.90;;;;;;5033161;28;20650;-68
2021/04/06 05:12:47;;;;;;;4.03;1.35;;;6.20;99.90;;;;;;5049219;28;20219;-69
2021/04/06 05:15:14;;;;;;;4.07;1.48;;;6.20;99.90;;;;;;5038846;28;20230;-68
2021/04/06 05:17:41;;;;;;;2.17;1.02;;;6.30;99.90;;;;;;5038422;28;20195;-69
2021/04/06 05:20:09;;;;;;;6.47;1.30;;;6.20;99.90;;;;;;5048911;28;20241;-69
2021/04/06 05:22:36;;;;;;;2.95;1.98;;;6.20;99.90;;;;;;5033773;28;20195;-69
2021/04/06 05:25:03;;;;;;;4.15;1.63;;;6.20;99.90;;;;;;5042421;28;20195;-69
2021/04/06 05:27:29;;;;;;;3.55;1.33;;;6.20;99.90;;;;;;5031171;28;20282;-69
2021/04/06 05:29:56;;;;;;;4.10;1.27;;;6.10;99.90;;;;;;5030053;28;20234;-68
2021/04/06 05:32:22;;;;;;;3.05;1.30;;;6.20;99.90;;;;;;5030021;28;20207;-69
2021/04/06 05:34:48;;;;;;;3.38;1.42;;;6.20;99.90;;;;;;5030343;28;20203;-69
2021/04/06 05:37:16;;;;;;;2.53;1.20;;;6.20;99.90;;;;;;5033650;28;20195;-69
2021/04/06 05:39:42;;;;;;;3.33;1.70;;;6.20;99.90;;;;;;5039762;28;20264;-69
2021/04/06 05:42:11;;;;;;;3.80;1.30;;;6.20;99.90;;;;;;5049878;28;20209;-69
2021/04/06 05:44:40;;;;;;;3.70;1.20;;;6.20;99.90;;;;;;5048980;28;20594;-69
2021/04/06 05:47:14;;;;;;;3.08;1.63;;;6.20;99.90;;;;;;5040341;28;20234;-69
2021/04/06 05:49:40;;;;;;;4.30;1.38;;;6.20;99.90;;;;;;5030026;28;20180;-69
2021/04/06 05:52:06;;;;;;;2.38;1.48;;;6.30;99.90;;;;;;5047059;28;20211;-69
2021/04/06 05:54:33;;;;;;;6.57;1.40;;;6.20;99.90;;;;;;5032492;28;20198;-69
2021/04/06 05:57:00;;;;;;;2.95;1.15;;;6.20;99.90;;;;;;5039594;28;20210;-69
2021/04/06 05:59:26;;;;;;;5.47;1.45;;;6.20;99.90;;;;;;5052415;28;20202;-69
2021/04/06 06:01:52;;;;;;;4.38;1.35;;;6.20;99.90;;;;;;5044049;28;20200;-69
2021/04/06 06:04:20;;;;;;;5.25;1.20;;;6.20;99.90;;;;;;5033611;28;20531;-69
2021/04/06 06:06:46;;;;;;;1.65;1.00;;;6.30;99.90;;;;;;5034685;28;20255;-69
2021/04/06 06:09:13;;;;;;;3.65;1.52;;;6.40;99.90;;;;;;5042850;28;20203;-69
2021/04/06 06:11:59;;;;;;;3.03;1.45;;;6.50;99.90;;;;;;5045616;28;20254;-69
2021/04/06 06:14:31;;;;;;;5.95;1.65;;;6.70;99.90;;;;;;5033445;28;20211;-69
2021/04/06 06:16:57;;;;;;;5.15;1.50;;;7.00;99.90;;;;;;5034608;28;20191;-69
2021/04/06 06:19:32;;;;;;;2.70;1.30;;;7.20;99.90;;;;;;5034859;28;20234;-69
2021/04/06 06:22:10;;;;;;;2.85;1.48;;;7.40;99.90;;;;;;5043521;28;20242;-69
2021/04/06 06:24:38;;;;;;;3.10;1.38;;;7.60;99.90;;;;;;5033068;28;20210;-69
2021/04/06 06:27:22;;;;;;;3.53;1.45;;;7.70;99.90;;;;;;5043364;28;20219;-69
2021/04/06 06:29:49;;;;;;;2.20;1.38;;;7.80;99.90;;;;;;5052151;28;20198;-69
2021/04/06 06:32:22;;;;;;;5.60;1.67;;;7.90;99.90;;;;;;5043827;28;20531;-69
2021/04/06 06:34:50;;;;;;;2.80;1.30;;;7.80;99.90;;;;;;5052135;28;20210;-69
2021/04/06 06:37:18;;;;;;;2.35;1.30;;;7.90;99.90;;;;;;5033084;28;20203;-68
2021/04/06 06:39:56;;;;;;;2.58;1.48;;;7.90;99.90;;;;;;5046201;28;20622;-69
2021/04/06 06:43:02;;;;;;;3.85;1.40;;;8.00;99.90;;;;;;5040142;28;20199;-69
2021/04/06 06:45:34;;;;;;;1.65;1.15;;;8.00;99.90;;;;;;5032144;28;20207;-69
2021/04/06 06:48:01;;;;;;;2.88;1.27;;;8.00;99.90;;;;;;5033392;28;20750;-69
2021/04/06 06:50:27;;;;;;;2.67;1.27;;;8.10;99.90;;;;;;5032640;28;20215;-68
2021/04/06 06:52:54;;;;;;;3.95;1.55;;;8.10;99.90;;;;;;5041568;28;20195;-69
2021/04/06 06:55:23;;;;;;;3.60;1.33;;;8.10;99.90;;;;;;5038490;28;20249;-68
2021/04/06 06:57:50;;;;;;;7.20;1.42;;;8.10;99.90;;;;;;5041508;28;20531;-68
2021/04/06 07:00:18;;;;;;;3.03;1.40;;;8.10;99.90;;;;;;5048296;28;20211;-69
2021/04/06 07:02:46;;;;;;;4.55;1.77;;;8.00;99.90;;;;;;5049845;28;20199;-69
2021/04/06 07:05:18;;;;;;;3.50;1.23;;;7.90;99.90;;;;;;5052472;28;20199;-68
2021/04/06 07:07:55;;;;;;;2.75;1.52;;;7.80;99.90;;;;;;5052025;28;20233;-69
2021/04/06 07:10:23;;;;;;;4.55;1.73;;;7.70;99.90;;;;;;5041217;28;20260;-69
2021/04/06 07:12:56;;;;;;;1.63;1.20;;;7.60;99.90;;;;;;5033148;28;20203;-69
2021/04/06 07:15:23;;;;;;;5.25;1.95;;;7.50;99.90;;;;;;5031917;28;20575;-69
2021/04/06 07:17:51;;;;;;;3.33;1.27;;;7.50;99.90;;;;;;5033008;28;20575;-69
2021/04/06 07:20:20;;;;;;;3.35;1.63;;;7.40;99.90;;;;;;5041067;28;20227;-69
2021/04/06 07:22:48;;;;;;;3.47;1.50;;;7.40;99.90;;;;;;5053173;28;20205;-69
2021/04/06 07:25:15;;;;;;;2.63;1.30;;;7.40;99.90;;;;;;5045003;28;20603;-68
2021/04/06 07:27:42;;;;;;;3.53;1.85;;;7.40;99.90;;;;;;5032863;28;20234;-69
2021/04/06 07:30:11;;;;;;;2.08;1.25;;;7.40;99.90;;;;;;5035444;28;20262;-69
2021/04/06 07:32:39;;;;;;;1.88;1.30;;;7.50;99.90;;;;;;5053028;28;20336;-69
2021/04/06 07:35:08;;;;;;;2.15;1.20;;;7.50;99.90;;;;;;5038311;28;20635;-69
2021/04/06 07:37:38;;;;;;;4.55;1.45;;;7.60;99.90;;;;;;5033696;28;20667;-69
2021/04/06 07:40:08;;;;;;;2.90;1.80;;;7.70;99.90;;;;;;5031493;28;20199;-69
2021/04/06 07:42:35;;;;;;;4.05;1.10;;;7.80;99.90;;;;;;5050683;28;20285;-69
2021/04/06 07:45:05;;;;;;;5.10;1.55;;;7.80;99.90;;;;;;5048701;28;20222;-68
2021/04/06 07:47:37;;;;;;;1.90;1.00;;;7.80;99.90;;;;;;5034318;28;20215;-69
2021/04/06 07:50:11;;;;;;;4.35;1.20;;;7.80;99.90;;;;;;5031361;28;20211;-69
2021/04/06 07:52:37;;;;;;;5.70;1.65;;;7.90;99.90;;;;;;5041785;28;20206;-68
2021/04/06 07:55:04;;;;;;;1.80;1.00;;;8.10;99.90;;;;;;5038401;28;20206;-69
2021/04/06 07:57:42;;;;;;;2.10;1.00;;;8.30;99.90;;;;;;5045659;28;20202;-69
2021/04/06 08:00:10;;;;;;;3.22;1.02;;;8.30;99.90;;;;;;5031467;28;20226;-69
2021/04/06 08:02:44;;;;;;;1.60;1.15;;;8.30;99.90;;;;;;5031239;28;20258;-68
2021/04/06 08:05:18;;;;;;;1.20;0.93;;;8.20;99.90;;;;;;5031217;28;20231;-69
2021/04/06 08:07:44;;;;;;;2.25;1.05;;;8.10;99.90;;;;;;5049355;28;20209;-69
2021/04/06 08:10:38;;;;;;;2.60;1.30;;;8.00;99.90;;;;;;5035714;28;20195;-68
2021/04/06 08:13:05;;;;;;;1.95;1.02;;;8.10;99.90;;;;;;5031023;28;20238;-69
2021/04/06 08:15:33;;;;;;;1.77;1.10;;;8.30;99.90;;;;;;5031334;28;20204;-69
2021/04/06 08:18:01;;;;;;;1.88;1.10;;;8.50;99.90;;;;;;5031239;28;20195;-69
2021/04/06 08:20:45;;;;;;;1.70;1.17;;;8.60;99.90;;;;;;5039840;28;20234;-69
2021/04/06 08:23:14;;;;;;;3.67;1.02;;;8.40;99.90;;;;;;5030137;28;20696;-69
2021/04/06 08:25:51;;;;;;;2.35;1.20;;;8.20;99.90;;;;;;5046866;28;20198;-69
2021/04/06 08:28:40;;;;;;;2.05;1.20;;;8.20;99.90;;;;;;5041393;28;20249;-69
2021/04/06 08:31:25;;;;;;;2.40;1.27;;;8.20;99.90;;;;;;5033055;28;20208;-69
2021/04/06 08:33:52;;;;;;;1.85;1.20;;;8.20;99.90;;;;;;5045749;28;20257;-69
2021/04/06 08:36:26;;;;;;;2.22;1.30;;;8.10;99.90;;;;;;5040429;28;20214;-69
2021/04/06 08:38:54;;;;;;;2.30;1.40;;;8.10;99.90;;;;;;5038107;28;20220;-69
2021/04/06 08:41:39;;;;;;;4.20;1.65;;;8.20;99.90;;;;;;5032081;28;20207;-69
2021/04/06 08:44:09;;;;;;;3.60;1.42;;;8.30;99.90;;;;;;5048032;28;20213;-69
2021/04/06 08:46:49;;;;;;;3.15;1.35;;;8.20;99.90;;;;;;5036114;28;20200;-69
2021/04/06 08:49:19;;;;;;;2.55;1.65;;;8.20;99.90;;;;;;5035405;28;20202;-69
2021/04/06 08:51:48;;;;;;;5.68;2.10;;;8.20;99.90;;;;;;5050458;28;20216;-69
2021/04/06 08:54:17;;;;;;;2.30;1.55;;;8.30;99.90;;;;;;5047109;28;20200;-69
2021/04/06 08:56:45;;;;;;;6.18;1.33;;;8.30;99.90;;;;;;5032775;28;20253;-69
2021/04/06 08:59:17;;;;;;;3.88;1.45;;;8.10;99.90;;;;;;5031150;28;20195;-69
2021/04/06 09:01:46;;;;;;;4.40;1.92;;;8.00;99.90;;;;;;5051185;28;20202;-69
2021/04/06 09:04:14;;;;;;;5.65;1.83;;;8.00;99.90;;;;;;5044138;28;20203;-69
2021/04/06 09:06:41;;;;;;;3.45;1.40;;;8.20;99.90;;;;;;5044309;28;20643;-69
2021/04/06 09:09:13;;;;;;;1.85;1.20;;;8.20;99.90;;;;;;5034739;28;20200;-69
2021/04/06 09:11:41;;;;;;;5.45;1.75;;;8.10;99.90;;;;;;5031145;28;20635;-69
2021/04/06 09:14:08;;;;;;;3.88;1.73;;;8.00;99.90;;;;;;5032079;28;20258;-69
2021/04/06 09:16:35;;;;;;;3.05;1.75;;;7.90;99.90;;;;;;5031945;28;20199;-69
2021/04/06 09:19:06;;;;;;;3.95;1.52;;;8.00;99.90;;;;;;5030206;28;20235;-69
2021/04/06 09:21:34;;;;;;;3.60;1.77;;;8.20;99.90;;;;;;5030811;28;20206;-71
2021/04/06 09:24:02;;;;;;;1.73;1.30;;;8.50;99.90;;;;;;5035199;28;20195;-74
2021/04/06 09:26:30;;;;;;;4.28;1.40;;;8.60;99.90;;;;;;5046433;28;20246;-69
2021/04/06 09:29:11;;;;;;;3.67;1.42;;;8.70;99.90;;;;;;5029655;28;20211;-69
2021/04/06 09:31:41;;;;;;;2.53;1.20;;;8.70;99.90;;;;;;5038455;28;20209;-70
2021/04/06 09:34:10;;;;;;;3.60;1.85;;;8.80;99.90;;;;;;5051080;28;20201;-70
2021/04/06 09:36:38;;;;;;;4.50;1.35;;;8.90;99.90;;;;;;5049860;28;20206;-70
2021/04/06 09:39:06;;;;;;;5.25;1.38;;;8.90;99.90;;;;;;5039800;28;20203;-70
2021/04/06 09:41:35;;;;;;;3.47;1.40;;;8.80;99.90;;;;;;5038042;28;20777;-69
2021/04/06 09:44:03;;;;;;;3.55;1.40;;;8.80;99.90;;;;;;5042994;28;20679;-68
2021/04/06 09:46:35;;;;;;;3.70;1.55;;;8.80;99.90;;;;;;5038921;28;20210;-70
2021/04/06 09:49:02;;;;;;;2.38;1.13;;;8.80;99.90;;;;;;5046422;28;20575;-69
2021/04/06 09:51:28;;;;;;;1.50;1.10;;;8.80;99.90;;;;;;5041419;28;20199;-69
2021/04/06 09:53:56;;;;;;;1.77;1.10;;;8.90;99.90;;;;;;5044168;28;20230;-69
2021/04/06 09:56:23;;;;;;;4.05;1.65;;;8.90;99.90;;;;;;5044243;28;20762;-70
2021/04/06 09:58:50;;;;;;;1.90;1.08;;;9.00;99.90;;;;;;5043142;28;20280;-69
2021/04/06 10:01:18;;;;;;;2.63;1.20;;;8.90;99.90;;;;;;5037877;28;20207;-69
2021/04/06 10:03:47;;;;;;;2.03;1.40;;;8.90;99.90;;;;;;5043159;28;20221;-69
2021/04/06 10:06:14;;;;;;;1.95;1.15;;;9.00;99.90;;;;;;5041476;28;20195;-70
2021/04/06 10:08:41;;;;;;;2.28;1.40;;;9.10;99.90;;;;;;5044165;28;20250;-69
2021/04/06 10:11:09;;;;;;;3.80;1.42;;;9.10;99.90;;;;;;5042628;28;20254;-68
2021/04/06 10:13:37;;;;;;;2.78;1.20;;;9.20;99.90;;;;;;5039985;28;20203;-69
2021/04/06 10:16:07;;;;;;;2.63;1.73;;;9.20;99.90;;;;;;5052670;28;20195;-69
2021/04/06 10:18:41;;;;;;;2.45;1.48;;;9.20;99.90;;;;;;5045094;28;20367;-69
2021/04/06 10:21:23;;;;;;;6.20;1.75;;;9.10;99.90;;;;;;5040307;28;20445;-68
2021/04/06 10:23:50;;;;;;;9.07;2.10;;;8.90;99.90;;;;;;5041631;28;20195;-69
2021/04/06 10:26:19;;;;;;;3.05;1.35;;;9.00;99.90;;;;;;5039216;28;20211;-68
2021/04/06 10:28:46;;;;;;;3.80;1.50;;;9.10;99.90;;;;;;5038619;28;20214;-68
2021/04/06 10:31:13;;;;;;;5.03;1.60;;;9.10;99.90;;;;;;5044014;28;20195;-67
2021/04/06 10:33:39;;;;;;;2.53;1.45;;;9.10;99.90;;;;;;5040206;28;20199;-67
2021/04/06 10:36:09;;;;;;;3.58;1.40;;;9.10;99.90;;;;;;5034545;28;20207;-68
2021/04/06 10:38:37;;;;;;;5.80;1.75;;;9.10;99.90;;;;;;5043478;28;20612;-68
2021/04/06 10:41:06;;;;;;;4.90;1.70;;;9.10;99.90;;;;;;5042531;28;20195;-68
2021/04/06 10:43:33;;;;;;;3.13;1.20;;;8.90;99.90;;;;;;5039730;28;20207;-68
2021/04/06 10:46:02;;;;;;;3.38;1.50;;;8.80;99.90;;;;;;5040489;28;20227;-68
2021/04/06 10:48:32;;;;;;;2.70;1.30;;;8.70;99.90;;;;;;5044422;28;20212;-69
2021/04/06 10:51:01;;;;;;;6.72;1.63;;;8.70;99.90;;;;;;5041653;28;20250;-68
2021/04/06 10:53:30;;;;;;;2.13;1.00;;;8.60;99.90;;;;;;5046858;28;20321;-70
2021/04/06 10:56:08;;;;;;;2.78;1.30;;;8.60;99.90;;;;;;5041645;28;20237;-70
2021/04/06 10:58:35;;;;;;;2.88;1.15;;;8.60;99.90;;;;;;5045345;28;20704;-70
2021/04/06 11:01:06;;;;;;;4.85;1.33;;;8.60;99.90;;;;;;5045083;28;20880;-70
2021/04/06 11:03:43;;;;;;;1.48;1.02;;;8.60;99.90;;;;;;5043927;28;20202;-68
2021/04/06 11:06:30;;;;;;;4.43;1.20;;;8.60;99.90;;;;;;5040790;28;20195;-68
2021/04/06 11:08:58;;;;;;;4.05;1.45;;;8.50;99.90;;;;;;5041894;28;20218;-68
2021/04/06 11:11:28;;;;;;;1.73;1.00;;;8.50;99.90;;;;;;5047037;28;20203;-70
2021/04/06 11:13:56;;;;;;;1.60;1.20;;;8.50;99.90;;;;;;5042542;28;20195;-68
2021/04/06 11:16:23;;;;;;;2.38;1.27;;;8.40;99.90;;;;;;5044866;28;20230;-68
2021/04/06 11:19:07;;;;;;;1.10;0.93;;;8.40;99.90;;;;;;5041126;28;20635;-69
2021/04/06 11:21:34;;;;;;;3.30;1.13;;;8.50;99.90;;;;;;5037503;28;20210;-68
2021/04/06 11:24:01;;;;;;;2.40;1.30;;;8.60;99.90;;;;;;5039601;28;20249;-68
2021/04/06 11:26:27;;;;;;;4.18;1.20;;;8.60;99.90;;;;;;5038396;28;20202;-68
2021/04/06 11:28:53;;;;;;;3.35;1.10;;;8.60;99.90;;;;;;5042344;28;20298;-68
2021/04/06 11:31:20;;;;;;;1.55;1.15;;;8.60;99.90;;;;;;5034470;28;20199;-68
2021/04/06 11:33:46;;;;;;;3.00;1.00;;;8.50;99.90;;;;;;5041753;28;20199;-68
2021/04/06 11:36:13;;;;;;;4.93;1.50;;;8.60;99.90;;;;;;5041463;28;20198;-69
2021/04/06 11:38:40;;;;;;;3.15;1.23;;;8.60;99.90;;;;;;5033740;28;20253;-70
2021/04/06 11:41:06;;;;;;;2.28;1.17;;;8.60;99.90;;;;;;5035126;28;20215;-69
2021/04/06 11:43:33;;;;;;;3.38;1.05;;;8.70;99.90;;;;;;5038611;28;20206;-69
2021/04/06 11:46:00;;;;;;;1.65;0.90;;;8.70;99.90;;;;;;5050655;28;20206;-68
2021/04/06 11:48:26;;;;;;;1.60;1.23;;;8.60;99.90;;;;;;5033176;28;20269;-69
2021/04/06 11:50:52;;;;;;;1.20;1.00;;;8.50;99.90;;;;;;5041127;28;20384;-68
2021/04/06 11:53:20;;;;;;;4.03;1.55;;;8.40;99.90;;;;;;5035014;28;20219;-68
2021/04/06 11:55:46;;;;;;;1.75;1.25;;;8.40;99.90;;;;;;5042185;28;20213;-68
2021/04/06 11:58:12;;;;;;;3.83;1.25;;;8.50;99.90;;;;;;5034504;28;20203;-70
2021/04/06 12:00:38;;;;;;;1.75;1.10;;;8.50;99.90;;;;;;5032997;28;20195;-69
2021/04/06 12:03:05;;;;;;;2.22;1.30;;;8.50;99.90;;;;;;5040076;28;20194;-69
2021/04/06 12:05:31;;;;;;;1.10;0.90;;;8.40;99.90;;;;;;5039741;28;20380;-68
2021/04/06 12:07:58;;;;;;;3.17;0.90;;;8.40;99.90;;;;;;5038811;28;20771;-68
2021/04/06 12:10:25;;;;;;;2.65;1.23;;;8.40;99.90;;;;;;5038730;28;20200;-68
2021/04/06 12:12:51;;;;;;;2.40;1.30;;;8.50;99.90;;;;;;5047221;28;20637;-68
2021/04/06 12:15:18;;;;;;;1.45;1.00;;;8.40;99.90;;;;;;5037848;28;20200;-67
2021/04/06 12:17:46;;;;;;;1.65;1.05;;;8.40;99.90;;;;;;5040196;28;20234;-67
2021/04/06 12:20:14;;;;;;;2.63;1.55;;;8.40;99.90;;;;;;5040120;28;20238;-67
2021/04/06 12:22:40;;;;;;;2.08;1.00;;;8.40;99.90;;;;;;5040392;28;20194;-67
2021/04/06 12:25:07;;;;;;;2.38;1.08;;;8.40;99.90;;;;;;5036469;28;20207;-67
2021/04/06 12:27:34;;;;;;;1.10;0.82;;;8.40;99.90;;;;;;5034940;28;20253;-68
2021/04/06 12:30:00;;;;;;;1.35;0.90;;;8.40;99.90;;;;;;5044640;28;20203;-68
2021/04/06 12:32:27;;;;;;;1.25;0.90;;;8.30;99.90;;;;;;5033560;28;20200;-68
2021/04/06 12:34:53;;;;;;;1.35;1.05;;;8.30;99.90;;;;;;5038983;28;20196;-68
2021/04/06 12:37:20;;;;;;;1.88;1.08;;;8.40;99.90;;;;;;5043167;28;20203;-68
2021/04/06 12:39:47;;;;;;;1.10;0.90;;;8.30;99.90;;;;;;5033287;28;20203;-68
2021/04/06 12:42:14;;;;;;;4.70;1.00;;;8.30;99.90;;;;;;5035288;28;20206;-68
2021/04/06 12:44:41;;;;;;;2.78;1.00;;;8.40;99.90;;;;;;5034309;28;20195;-68
2021/04/06 12:47:08;;;;;;;2.10;1.10;;;8.30;99.90;;;;;;5040839;28;20539;-68
2021/04/06 12:49:34;;;;;;;1.17;0.82;;;8.30;99.90;;;;;;5036013;28;20199;-68
2021/04/06 12:52:00;;;;;;;1.77;1.10;;;8.30;99.90;;;;;;5043491;28;20262;-68
2021/04/06 12:54:26;;;;;;;1.10;0.80;;;8.30;99.90;;;;;;5032831;28;20201;-69
2021/04/06 12:56:53;;;;;;;1.77;1.23;;;8.20;99.90;;;;;;5036205;28;20206;-68
2021/04/06 12:59:19;;;;;;;1.30;0.85;;;8.20;99.90;;;;;;5039154;28;20204;-68
2021/04/06 13:01:46;;;;;;;1.20;0.90;;;8.20;99.90;;;;;;5038415;28;20199;-69
2021/04/06 13:04:12;;;;;;;2.60;1.20;;;8.20;99.90;;;;;;5042406;28;20204;-69
2021/04/06 13:06:39;;;;;;;2.65;0.80;;;8.30;99.90;;;;;;5040143;28;20210;-69